Latest Weather Observations for Gladstone Airport

IDQ60801

Issued at 1:02 pm EST Tuesday 4 August 2015 (issued every 30 minutes, with the page automatically refreshed every 10 minutes)

About weather observations | Map of weather stations | Latest weather observations for QLD | Other Formats
Station Details ID: 039326 Name: GLADSTONE AIRPORT Lat: -23.87 Lon: 151.22 Height: 16.6 m
Data from the previous 72 hours. | See also: Recent months at Gladstone Airport
Date/Time
EST
Temp
°C
App
Temp
°C
Dew
Point
Rel
Hum
%
Delta-T
°C
Wind Press
QNH
hPa
Press
MSL
hPa
Rain
since 9 am
mm
Dir
 
Spd
km/h
Gust
km/h
Spd
kts
Gust
kts
04/01:00pm 24.2 21.6 7.8 35 8.6 SSE 11 19 6 10 1016.7 1016.7 0.0
04/12:30pm 24.3 22.2 8.3 36 8.5 SSW 9 19 5 10 1017.2 1017.2 0.0
04/12:00pm 22.9 19.4 7.0 36 8.2 SSW 15 20 8 11 1017.8 1017.8 0.0
04/11:30am 21.8 18.9 6.5 37 7.8 S 11 17 6 9 1018.4 1018.4 0.0
04/11:00am 21.8 18.5 6.5 37 7.8 SW 13 19 7 10 1018.7 1018.7 0.0
04/10:30am 20.7 17.1 6.6 40 7.1 SW 15 20 8 11 1019.2 1019.2 0.0
04/10:00am 20.1 17.3 6.8 42 6.7 SW 11 17 6 9 1019.5 1019.5 0.0
04/09:30am 19.2 15.6 6.7 44 6.3 SW 15 28 8 15 1019.4 1019.4 0.0
04/09:00am 18.2 14.2 6.7 47 5.7 SW 17 26 9 14 1019.3 1019.3 0.0
04/08:30am 17.0 13.4 6.8 51 5.0 SW 15 28 8 15 1019.3 1019.3 0.0
04/08:00am 16.0 11.8 5.9 51 4.9 SSW 17 26 9 14 1018.8 1018.8 0.0
04/07:30am 14.9 11.2 6.5 57 4.1 SW 15 26 8 14 1018.8 1018.8 0.0
04/07:00am 14.2 11.3 6.6 60 3.7 SSW 11 17 6 9 1018.5 1018.5 0.0
04/06:30am 14.5 11.0 7.1 61 3.6 S 15 22 8 12 1018.2 1018.2 0.0
04/06:00am 13.9 11.8 9.9 77 2.1 SW 11 17 6 9 1017.9 1017.9 0.0
04/05:30am 14.2 13.2 12.4 89 1.0 SW 9 15 5 8 1017.6 1017.6 0.0
04/05:00am 14.7 13.7 13.4 92 0.7 SSW 11 15 6 8 1017.1 1017.1 0.0
04/04:57am 14.8 14.3 13.7 93 0.6 SSW 9 15 5 8 1017.1 1017.1 0.0
04/04:53am 14.8 13.9 13.7 93 0.6 SSW 11 15 6 8 1017.1 1017.1 0.0
04/04:30am 15.4 15.4 14.3 93 0.6 SW 7 9 4 5 1016.9 1016.9 0.0
04/04:19am 15.6 15.7 14.5 93 0.6 SSW 7 11 4 6 1016.9 1016.9 0.0
04/04:03am 15.9 16.1 14.6 92 0.7 SW 7 11 4 6 1016.9 1016.9 0.0
04/04:00am 15.6 15.8 14.3 92 0.7 SW 6 7 3 4 1016.9 1016.9 0.0
04/03:30am 16.0 16.1 14.5 91 0.9 SW 7 9 4 5 1016.9 1016.9 0.0
04/03:10am 16.5 16.8 15.0 91 0.9 SW 7 9 4 5 1017.0 1017.0 0.0
04/03:00am 16.8 16.9 15.5 92 0.8 SW 9 11 5 6 1017.0 1017.0 0.0
04/02:30am 17.3 17.7 16.2 93 0.7 SW 9 13 5 7 1017.1 1017.1 0.0
04/02:25am 17.4 18.2 16.3 93 0.7 SW 7 13 4 7 1017.2 1017.2 0.0
04/02:00am 16.8 17.2 15.3 91 0.9 SSW 7 11 4 6 1017.2 1017.2 0.0
04/01:30am 16.8 17.2 15.3 91 0.9 WSW 7 9 4 5 1017.4 1017.4 0.0
04/01:26am 16.5 16.8 14.9 90 0.9 SW 7 9 4 5 1017.4 1017.4 0.0
04/01:00am 17.5 17.7 15.8 90 1.0 SSW 9 11 5 6 1017.6 1017.6 0.0
04/12:30am 17.4 17.5 15.6 89 1.1 SW 9 13 5 7 1017.7 1017.7 0.0
04/12:00am 17.1 17.2 15.6 91 0.9 SW 9 11 5 6 1017.6 1017.6 0.0
 
Date/Time
EST
Temp
°C
App
Temp
°C
Dew
Point
Rel
Hum
%
Delta-T
°C
Wind Press
QNH
hPa
Press
MSL
hPa
Rain
since 9 am
mm
Dir
 
Spd
km/h
Gust
km/h
Spd
kts
Gust
kts
03/11:33pm 16.6 16.9 15.0 90 0.9 SW 7 9 4 5 1017.7 1017.7 0.0
03/11:30pm 16.6 17.4 14.8 89 1.0 SW 4 9 2 5 1017.7 1017.7 0.0
03/11:09pm 16.9 18.5 14.9 88 1.2 CALM 0 0 0 0 1017.7 1017.7 0.0
03/11:00pm 16.6 17.9 14.2 86 1.4 CALM 0 0 0 0 1017.8 1017.8 0.0
03/10:30pm 17.5 18.1 15.7 89 1.1 SSW 7 9 4 5 1017.8 1017.8 0.0
03/10:24pm 17.5 18.6 15.7 89 1.1 SSW 4 9 2 5 1017.7 1017.7 0.0
03/10:00pm 17.6 19.3 15.2 86 1.4 CALM 0 0 0 0 1017.6 1017.6 0.0
03/09:30pm 18.5 18.9 16.3 87 1.3 NNW 9 9 5 5 1017.7 1017.7 0.0
03/09:00pm 18.7 19.7 16.3 86 1.4 NNW 6 9 3 5 1017.9 1017.9 0.0
03/08:30pm 19.0 19.9 16.2 84 1.7 N 6 7 3 4 1018.0 1018.0 0.0
03/08:00pm 19.1 19.8 16.0 82 1.8 NNW 7 9 4 5 1018.0 1018.0 0.0
03/07:30pm 19.4 19.6 15.7 79 2.2 NNW 9 11 5 6 1017.7 1017.7 0.0
03/07:00pm 20.1 19.8 15.5 75 2.7 NNW 11 15 6 8 1017.4 1017.4 0.0
03/06:30pm 20.6 20.2 15.2 71 3.2 N 11 13 6 7 1017.1 1017.1 0.0
03/06:00pm 21.1 20.6 15.0 68 3.6 N 11 15 6 8 1016.8 1016.8 0.0
03/05:30pm 22.0 20.6 14.4 62 4.5 N 15 22 8 12 1016.5 1016.5 0.0
03/05:00pm 23.2 21.6 13.9 56 5.4 N 15 20 8 11 1016.4 1016.4 0.0
03/04:30pm 24.0 21.2 13.2 50 6.3 NNW 20 30 11 16 1016.3 1016.3 0.0
03/04:00pm 24.9 21.9 11.8 44 7.4 NNW 19 24 10 13 1016.2 1016.2 0.0
03/03:30pm 25.5 23.1 12.7 45 7.4 NNW 17 20 9 11 1016.0 1016.0 0.0
03/03:00pm 25.0 23.4 12.9 47 7.0 N 13 19 7 10 1016.2 1016.2 0.0
03/02:30pm 24.7 23.0 14.8 54 5.9 NE 17 20 9 11 1016.5 1016.5 0.0
03/02:00pm 24.3 23.2 16.3 61 4.9 NE 17 20 9 11 1016.7 1016.7 0.0
03/01:30pm 24.2 23.3 15.9 59 5.0 NE 15 20 8 11 1017.3 1017.3 0.0
03/01:00pm 24.1 22.2 14.2 54 5.8 NNE 17 22 9 12 1017.6 1017.6 0.0
03/12:30pm 25.0 23.8 12.9 47 7.0 NNW 11 19 6 10 1018.3 1018.3 0.0
03/12:00pm 24.4 23.3 14.2 53 6.0 N 13 19 7 10 1018.6 1018.6 0.0
03/11:30am 23.6 22.3 13.8 54 5.7 NNW 13 19 7 10 1019.3 1019.3 0.0
03/11:00am 22.8 22.8 15.1 62 4.6 NNW 9 17 5 9 1019.9 1019.9 0.0
03/10:30am 21.7 22.6 16.0 70 3.4 WNW 6 11 3 6 1020.4 1020.4 0.0
03/10:00am 20.0 19.8 15.6 76 2.6 SSW 11 15 6 8 1020.9 1020.9 0.0
03/09:30am 18.2 17.5 15.3 83 1.7 SW 13 19 7 10 1021.3 1021.3 0.0
03/09:00am 16.6 15.2 14.6 88 1.1 SSW 15 20 8 11 1021.0 1021.0 0.0
03/08:30am 15.8 14.7 14.2 90 0.9 SW 13 17 7 9 1020.6 1020.6 0.0
03/08:19am 15.4 14.6 13.9 91 0.8 SSW 11 17 6 9 1020.3 1020.3 0.0
03/08:17am 15.3 14.5 14.0 92 0.7 SSW 11 17 6 9 1020.3 1020.3 0.0
03/08:00am 14.5 13.5 13.4 93 0.6 SSW 11 17 6 9 1020.2 1020.2 0.0
03/07:52am 14.1 12.9 12.8 92 0.7 SSW 11 15 6 8 1020.2 1020.2 0.0
03/07:30am 13.3 11.8 12.0 92 0.7 SSW 11 17 6 9 1020.1 1020.1 0.0
03/07:00am 12.9 11.7 11.6 92 0.7 SSW 9 15 5 8 1020.2 1020.2 0.0
03/06:30am 12.7 11.1 11.4 92 0.7 SW 11 17 6 9 1020.0 1020.0 0.0
03/06:00am 12.6 10.9 11.3 92 0.7 SW 11 15 6 8 1019.9 1019.9 0.0
03/05:30am 12.8 11.2 11.5 92 0.7 SW 11 15 6 8 1019.8 1019.8 0.0
03/05:00am 12.8 11.6 11.5 92 0.7 SW 9 17 5 9 1019.5 1019.5 0.0
03/04:30am 13.2 11.3 11.9 92 0.7 SW 13 19 7 10 1019.4 1019.4 0.0
03/04:00am 13.3 11.5 12.0 92 0.7 SW 13 17 7 9 1019.5 1019.5 0.0
03/03:30am 13.5 12.2 12.4 93 0.6 SSW 11 13 6 7 1019.5 1019.5 0.0
03/03:00am 13.5 11.8 12.4 93 0.6 SW 13 15 7 8 1019.6 1019.6 0.0
03/02:30am 13.5 12.5 12.2 92 0.7 SSW 9 13 5 7 1019.7 1019.7 0.0
03/02:00am 14.6 13.6 13.3 92 0.7 SW 11 13 6 7 1019.9 1019.9 0.0
03/01:30am 14.5 13.8 13.2 92 0.7 SSW 9 13 5 7 1020.0 1020.0 0.0
03/01:00am 14.5 14.3 13.0 91 0.8 SW 6 9 3 5 1020.3 1020.3 0.0
03/12:30am 14.2 14.8 11.9 86 1.2 CALM 0 0 0 0 1020.5 1020.5 0.0
03/12:00am 14.3 15.0 12.2 87 1.1 CALM 0 0 0 0 1020.7 1020.7 0.0
 
Date/Time
EST
Temp
°C
App
Temp
°C
Dew
Point
Rel
Hum
%
Delta-T
°C
Wind Press
QNH
hPa
Press
MSL
hPa
Rain
since 9 am
mm
Dir
 
Spd
km/h
Gust
km/h
Spd
kts
Gust
kts
02/11:30pm 14.8 15.7 13.0 89 1.0 CALM 0 0 0 0 1020.9 1020.9 0.0
02/11:00pm 14.8 15.6 12.7 87 1.1 CALM 0 0 0 0 1021.2 1021.2 0.0
02/10:30pm 15.1 16.0 13.0 87 1.2 CALM 0 0 0 0 1021.0 1021.0 0.0
02/10:00pm 15.4 16.4 13.1 86 1.3 CALM 0 0 0 0 1021.2 1021.2 0.0
02/09:30pm 15.8 16.8 13.3 85 1.4 CALM 0 0 0 0 1021.2 1021.2 0.0
02/09:00pm 16.3 17.5 13.8 85 1.4 CALM 0 0 0 0 1021.2 1021.2 0.0
02/08:30pm 16.8 18.0 13.9 83 1.6 CALM 0 0 0 0 1021.0 1021.0 0.0
02/08:00pm 17.6 18.9 14.1 80 2.0 CALM 0 0 0 0 1020.9 1020.9 0.0
02/07:30pm 18.7 19.4 14.6 77 2.4 ENE 4 7 2 4 1020.8 1020.8 0.0
02/07:00pm 19.1 20.7 15.0 77 2.4 CALM 0 4 0 2 1020.7 1020.7 0.0
02/06:30pm 19.7 20.0 14.9 74 2.8 NE 7 9 4 5 1020.6 1020.6 0.0
02/06:00pm 20.2 20.0 14.8 71 3.2 NE 9 11 5 6 1020.4 1020.4 0.0
02/05:30pm 20.9 19.8 14.3 66 3.8 NE 13 17 7 9 1020.3 1020.3 0.0
02/05:00pm 21.8 20.3 14.2 62 4.4 NE 15 17 8 9 1020.1 1020.1 0.0
02/04:30pm 22.6 20.6 13.9 58 5.1 NE 17 20 9 11 1020.1 1020.1 0.0
02/04:00pm 23.2 21.1 13.7 55 5.5 ENE 17 22 9 12 1020.0 1020.0 0.0
02/03:30pm 23.5 21.4 13.7 54 5.7 NE 17 20 9 11 1020.1 1020.1 0.0
02/03:00pm 23.7 21.6 13.6 53 5.9 ENE 17 24 9 13 1020.1 1020.1 0.0
02/02:30pm 24.0 22.6 13.5 52 6.1 NE 13 19 7 10 1020.3 1020.3 0.0
02/02:00pm 24.0 22.2 13.2 50 6.2 NE 15 24 8 13 1020.7 1020.7 0.0
02/01:30pm 23.4 21.5 13.0 52 6.0 NE 15 24 8 13 1021.0 1021.0 0.0
02/01:00pm 24.2 23.1 13.1 50 6.4 NNE 11 19 6 10 1021.5 1021.5 0.0
02/12:30pm 23.7 21.9 13.3 52 6.0 E 15 20 8 11 1022.1 1022.1 0.0
02/12:00pm 23.2 21.6 12.8 52 5.9 ENE 13 20 7 11 1022.4 1022.4 0.0
02/11:30am 23.4 21.9 13.0 52 6.0 ENE 13 20 7 11 1022.9 1022.9 0.0
02/11:00am 23.3 21.7 12.9 52 6.0 NE 13 20 7 11 1023.3 1023.3 0.0
02/10:30am 23.3 22.9 14.0 56 5.4 E 9 17 5 9 1023.5 1023.4 0.0
02/10:00am 21.9 21.9 13.5 59 4.8 WNW 6 9 3 5 1023.6 1023.5 0.0
02/09:30am 19.8 19.8 13.5 67 3.6 SW 6 9 3 5 1023.7 1023.6 0.0
02/09:00am 16.5 15.4 12.1 75 2.4 SW 9 17 5 9 1023.5 1023.4 0.0
02/08:30am 15.2 13.7 11.8 80 1.8 SSW 11 15 6 8 1023.1 1023.1 0.0
02/08:00am 13.6 12.2 10.9 84 1.4 SSW 9 13 5 7 1023.0 1023.0 0.0
02/07:30am 12.1 11.0 10.0 87 1.1 SSW 6 11 3 6 1022.7 1022.7 0.0
02/07:00am 11.4 10.1 9.8 90 0.8 SSW 7 13 4 7 1022.5 1022.5 0.0
02/06:30am 10.9 9.1 9.3 90 0.8 SSW 9 13 5 7 1022.3 1022.3 0.0
02/06:00am 11.1 8.5 9.5 90 0.8 SSW 13 19 7 10 1022.2 1022.2 0.0
02/05:30am 11.4 8.5 9.8 90 0.8 SSW 15 19 8 10 1022.0 1022.0 0.0
02/05:00am 11.6 9.2 10.0 90 0.8 SSW 13 19 7 10 1021.9 1021.9 0.0
02/04:30am 12.3 10.0 10.5 89 0.9 SSW 13 17 7 9 1021.9 1021.9 0.0
02/04:00am 12.3 10.8 10.7 90 0.8 SSW 9 13 5 7 1022.0 1022.0 0.0
02/03:30am 12.5 11.2 11.1 91 0.7 SSW 9 15 5 8 1022.1 1022.1 0.0
02/03:00am 12.6 11.7 11.2 91 0.7 SSW 7 13 4 7 1022.4 1022.4 0.0
02/02:30am 12.9 11.2 11.3 90 0.8 SSW 11 15 6 8 1022.4 1022.4 0.0
02/02:00am 13.5 12.8 12.1 91 0.8 SW 7 9 4 5 1022.5 1022.5 0.0
02/01:30am 13.5 13.3 11.7 89 1.0 S 4 6 2 3 1022.6 1022.6 0.0
02/01:00am 13.6 13.4 11.7 88 1.0 S 4 7 2 4 1022.7 1022.7 0.0
02/12:30am 14.3 13.8 12.5 89 1.0 SSW 7 11 4 6 1022.7 1022.7 0.0
02/12:00am 14.6 13.8 13.0 90 0.9 SSW 9 11 5 6 1022.8 1022.8 0.0
 
Date/Time
EST
Temp
°C
App
Temp
°C
Dew
Point
Rel
Hum
%
Delta-T
°C
Wind Press
QNH
hPa
Press
MSL
hPa
Rain
since 9 am
mm
Dir
 
Spd
km/h
Gust
km/h
Spd
kts
Gust
kts
01/11:30pm 14.6 14.4 13.0 90 0.9 SSW 6 7 3 4 1022.8 1022.8 0.0
01/11:00pm 14.5 15.3 12.5 88 1.1 CALM 0 0 0 0 1022.9 1022.9 0.0
01/10:30pm 14.8 15.7 12.8 88 1.1 CALM 0 0 0 0 1023.0 1023.0 0.0
01/10:00pm 15.0 15.9 12.9 87 1.2 CALM 0 0 0 0 1023.1 1023.1 0.0
01/09:30pm 15.7 16.8 13.4 86 1.3 CALM 0 6 0 3 1023.0 1023.0 0.0
01/09:00pm 16.5 16.6 14.5 88 1.1 SSE 7 9 4 5 1023.0 1023.0 0.0
01/08:30pm 16.5 16.6 13.8 84 1.5 SE 6 7 3 4 1023.0 1023.0 0.0
01/08:00pm 17.3 17.4 14.0 81 1.9 SE 6 7 3 4 1022.8 1022.8 0.0
01/07:30pm 18.3 18.6 15.0 81 1.9 E 7 9 4 5 1022.4 1022.4 0.0
01/07:00pm 18.7 18.7 15.2 80 2.0 ENE 9 11 5 6 1022.0 1022.0 0.0
01/06:30pm 19.1 19.3 14.8 76 2.5 E 7 11 4 6 1021.6 1021.6 0.0
01/06:00pm 19.4 19.1 14.4 73 2.9 ENE 9 13 5 7 1021.3 1021.3 0.0
01/05:30pm 20.1 18.9 14.0 68 3.5 ENE 13 15 7 8 1021.0 1021.0 0.0
01/05:00pm 21.0 19.1 11.9 56 5.1 ENE 13 17 7 9 1020.8 1020.8 0.0
01/04:30pm 21.6 19.3 11.9 54 5.4 NE 15 20 8 11 1020.9 1020.9 0.0
01/04:00pm 22.0 19.5 12.3 54 5.5 NE 17 20 9 11 1020.9 1020.9 0.0
01/03:30pm 22.5 20.2 11.6 50 6.1 ENE 15 20 8 11 1020.8 1020.8 0.0
01/03:00pm 22.7 20.1 12.0 50 6.0 NE 17 24 9 13 1020.8 1020.8 0.0
01/02:30pm 22.9 21.1 12.2 51 6.1 NE 13 22 7 12 1021.0 1021.0 0.0
01/02:00pm 23.1 20.5 12.1 50 6.2 NE 17 24 9 13 1021.2 1021.2 0.0
01/01:30pm 23.1 20.1 11.8 49 6.4 NE 19 22 10 12 1021.4 1021.4 0.0

Other Formats:

Comma delimited format used in spreadsheet applications
http://www.bom.gov.au/fwo/IDQ60801/IDQ60801.94381.axf

JavaScript Object Notation format (JSON) in row-major order
http://www.bom.gov.au/fwo/IDQ60801/IDQ60801.94381.json